Strona główna
METAR-TAF:

METAR-TAF

Lotnisko :

Port lotniczy Bruksela-Charleroi

Charleroi, Belgia

Szerokość geograficzna: 50-28N, Długość geograficzna: 004-27E, wysokość: 187 m

Aktualna obserwacja pogody

Raport powstał 40 minut temu, godzina 11:20 UTC
Wiatr 11 kt od zachodnio-południowy zachód
Temperatura 22°C
Wilgotność 50%
Ciśnienie 1012 hPa
Widzialność 10 km lub więcej
Mało chmury na wysokości 2500 ft

METAR: EBCI 181120Z 24011KT 9999 FEW025 22/11 Q1012 NOSIG

czas: 14:00 (12:00 UTC)

Prognoza

Raport powstał 50 minut temu, godzina 11:10 UTC
Prognoza ważna od 18 godzina 12 UTC do 19 godzina 18 UTC
Wiatr 8 kt od zachodnio-południowy zachód
Widzialność 10 km lub więcej
Mało chmury na wysokości 2800 ft
Prawdopodobieństwo 30% :
Przejściowo
od 19 godzina 04 UTC do 19 godzina 07 UTC
Przerywane chmury na wysokości 600 ft

TAF: EBCI 181110Z 1812/1918 25008KT 9999 FEW028 PROB30 TEMPO 1904/1907 BKN006

Obserwacja i prognoza pogody dla ponad 4000 lotnisk (raport METAR i TAF).

Dostępne stacje oznaczono żółtymi i czerwonymi punktami na mapie.

Najedź kursorem aby zobaczyć nazwę stacji.

Kliknij aby zobaczyć obserwacje i prognozy pogody.

Aby zmienić mapę: kliknij na zielony przycisk z czarnym krzyżykiem, aby powiększyć; na zielony przycisk z myślnikiem, aby pomniejszyć; na zielone strzałki, aby przejść do map sąsiednich.


METAR-TAF: